createdAt,value
2018-01-26T00:00:36.849Z,10.72
2018-01-26T00:01:36.831Z,10.74
2018-01-26T00:02:36.855Z,10.78
2018-01-26T00:03:36.603Z,10.76
2018-01-26T00:04:36.878Z,10.71
2018-01-26T00:05:36.625Z,10.69
2018-01-26T00:06:36.349Z,10.74
2018-01-26T00:07:36.926Z,10.74
2018-01-26T00:08:36.381Z,10.71
2018-01-26T00:09:36.682Z,10.68
2018-01-26T00:10:36.386Z,10.75
2018-01-26T00:11:36.729Z,10.75
2018-01-26T00:12:36.685Z,10.67
2018-01-26T00:13:36.985Z,10.71
2018-01-26T00:14:37.034Z,10.81
2018-01-26T00:15:36.734Z,10.69
2018-01-26T00:16:36.832Z,10.76
2018-01-26T00:17:36.822Z,10.69
2018-01-26T00:18:37.097Z,10.67
2018-01-26T00:19:37.112Z,10.69
2018-01-26T00:20:37.121Z,10.75
2018-01-26T00:21:36.855Z,10.75
2018-01-26T00:22:37.147Z,10.64
2018-01-26T00:23:36.860Z,10.67
2018-01-26T00:24:37.192Z,10.81
2018-01-26T00:25:36.654Z,10.74
2018-01-26T00:26:37.249Z,10.64
2018-01-26T00:27:37.296Z,10.67
2018-01-26T00:28:36.676Z,10.68
2018-01-26T00:29:37.015Z,10.76
2018-01-26T00:30:37.312Z,10.69
2018-01-26T00:31:37.265Z,10.67
2018-01-26T00:32:36.747Z,10.69
2018-01-26T00:33:37.323Z,10.68
2018-01-26T00:34:37.081Z,10.64
2018-01-26T00:35:37.315Z,10.61
2018-01-26T00:36:36.801Z,10.69
2018-01-26T00:37:36.783Z,10.61
2018-01-26T00:38:37.160Z,10.67
2018-01-26T00:39:37.102Z,10.67
2018-01-26T00:40:37.424Z,10.64
2018-01-26T00:41:37.152Z,10.63
2018-01-26T00:42:37.446Z,10.64
2018-01-26T00:43:36.878Z,10.64
2018-01-26T00:44:37.475Z,10.68
2018-01-26T00:45:36.920Z,10.63
2018-01-26T00:46:37.224Z,10.64
2018-01-26T00:47:36.941Z,10.64
2018-01-26T00:48:37.003Z,10.67
2018-01-26T00:49:37.013Z,10.61
2018-01-26T00:50:37.576Z,10.63
2018-01-26T00:51:37.623Z,10.72
2018-01-26T00:52:37.046Z,10.61
2018-01-26T00:53:37.660Z,10.63
2018-01-26T00:54:37.324Z,10.68
2018-01-26T00:55:37.373Z,10.69
2018-01-26T00:56:37.675Z,10.6
2018-01-26T00:57:37.091Z,10.67
2018-01-26T00:58:37.844Z,10.59
2018-01-26T00:59:37.405Z,10.67
2018-01-26T01:00:37.145Z,10.6
2018-01-26T01:01:37.741Z,10.63
2018-01-26T01:02:37.448Z,10.59
2018-01-26T01:03:37.773Z,10.6
2018-01-26T01:04:37.473Z,10.71
2018-01-26T01:05:37.819Z,10.67
2018-01-26T01:06:37.555Z,10.61
2018-01-26T01:07:37.829Z,10.63
2018-01-26T01:08:37.394Z,10.68
2018-01-26T01:09:37.858Z,10.64
2018-01-26T01:10:37.611Z,10.69
2018-01-26T01:11:37.848Z,10.64
2018-01-26T01:12:37.635Z,10.64
2018-01-26T01:13:37.778Z,10.57
2018-01-26T01:14:37.384Z,10.57
2018-01-26T01:15:37.935Z,10.64
2018-01-26T01:16:37.687Z,10.54
2018-01-26T01:17:38.010Z,10.64
2018-01-26T01:18:37.719Z,10.67
2018-01-26T01:19:37.997Z,10.56
2018-01-26T01:20:37.734Z,10.68
2018-01-26T01:21:37.716Z,10.6
2018-01-26T01:22:37.471Z,10.67
2018-01-26T01:23:37.467Z,10.61
2018-01-26T01:24:37.796Z,10.63
2018-01-26T01:25:37.823Z,10.64
2018-01-26T01:26:37.814Z,10.57
2018-01-26T01:27:37.807Z,10.63
2018-01-26T01:28:38.097Z,10.67
2018-01-26T01:29:37.858Z,10.6
2018-01-26T01:30:38.173Z,10.57
2018-01-26T01:31:38.173Z,10.57
2018-01-26T01:32:38.204Z,10.6
2018-01-26T01:33:38.237Z,10.57
2018-01-26T01:34:37.944Z,10.54
2018-01-26T01:35:37.977Z,10.61
2018-01-26T01:36:38.005Z,10.56
2018-01-26T01:37:37.965Z,10.49
2018-01-26T01:38:38.443Z,10.6
2018-01-26T01:39:38.310Z,10.56
2018-01-26T01:40:38.002Z,10.6
2018-01-26T01:41:38.387Z,10.57
2018-01-26T01:42:38.062Z,10.53
2018-01-26T01:43:38.085Z,10.51
2018-01-26T01:44:38.091Z,10.6
2018-01-26T01:45:37.813Z,10.57
2018-01-26T01:46:38.412Z,10.57
2018-01-26T01:47:38.393Z,10.56
2018-01-26T01:48:37.859Z,10.56
2018-01-26T01:49:37.883Z,10.61
2018-01-26T01:50:38.159Z,10.54
2018-01-26T01:51:38.178Z,10.53
2018-01-26T01:52:37.928Z,10.54
2018-01-26T01:53:38.223Z,10.53
2018-01-26T01:54:38.497Z,10.49
2018-01-26T01:55:38.255Z,10.51
2018-01-26T01:56:37.969Z,10.49
2018-01-26T01:57:38.565Z,10.53
2018-01-26T01:58:38.609Z,10.54
2018-01-26T01:59:38.034Z,10.54
2018-01-26T02:00:38.582Z,10.49
2018-01-26T02:01:38.714Z,10.49
2018-01-26T02:02:38.345Z,10.44
2018-01-26T02:03:38.708Z,10.41
2018-01-26T02:04:38.590Z,10.41
2018-01-26T02:05:38.460Z,10.44
2018-01-26T02:06:38.748Z,10.46
2018-01-26T02:07:38.697Z,10.44
2018-01-26T02:08:38.156Z,10.42
2018-01-26T02:09:39.106Z,10.44
2018-01-26T02:10:38.186Z,10.42
2018-01-26T02:11:38.787Z,10.4
2018-01-26T02:12:38.224Z,10.41
2018-01-26T02:13:38.811Z,10.48
2018-01-26T02:14:38.566Z,10.37
2018-01-26T02:15:38.519Z,10.42
2018-01-26T02:16:39.178Z,10.44
2018-01-26T02:17:39.232Z,10.42
2018-01-26T02:18:38.587Z,10.42
2018-01-26T02:19:38.694Z,10.34
2018-01-26T02:20:38.356Z,10.4
2018-01-26T02:21:38.649Z,10.37
2018-01-26T02:22:38.394Z,10.4
2018-01-26T02:23:38.635Z,10.37
2018-01-26T02:24:38.743Z,10.35
2018-01-26T02:25:38.944Z,10.38
2018-01-26T02:26:38.991Z,10.38
2018-01-26T02:27:38.727Z,10.33
2018-01-26T02:28:38.764Z,10.37
2018-01-26T02:29:38.733Z,10.33
2018-01-26T02:30:39.054Z,10.3
2018-01-26T02:31:38.807Z,10.3
2018-01-26T02:32:38.799Z,10.28
2018-01-26T02:33:39.109Z,10.28
2018-01-26T02:34:38.823Z,10.35
2018-01-26T02:35:39.129Z,10.3
2018-01-26T02:36:38.872Z,10.37
2018-01-26T02:37:38.845Z,10.28
2018-01-26T02:38:38.862Z,10.35
2018-01-26T02:39:39.160Z,10.4
2018-01-26T02:40:38.887Z,10.37
2018-01-26T02:41:38.656Z,10.35
2018-01-26T02:42:39.245Z,10.37
2018-01-26T02:43:38.954Z,10.3
2018-01-26T02:44:39.010Z,10.38
2018-01-26T02:45:39.283Z,10.35
2018-01-26T02:46:39.007Z,10.31
2018-01-26T02:47:39.029Z,10.37
2018-01-26T02:48:39.351Z,10.33
2018-01-26T02:49:39.083Z,10.33
2018-01-26T02:50:39.351Z,10.33
2018-01-26T02:51:39.341Z,10.28
2018-01-26T02:52:39.417Z,10.34
2018-01-26T02:53:39.425Z,10.38
2018-01-26T02:54:38.847Z,10.3
2018-01-26T02:55:39.109Z,10.3
2018-01-26T02:56:39.174Z,10.37
2018-01-26T02:57:38.911Z,10.3
2018-01-26T02:58:39.666Z,10.33
2018-01-26T02:59:38.912Z,10.34
2018-01-26T03:00:38.943Z,10.33
2018-01-26T03:01:39.508Z,10.28
2018-01-26T03:02:38.955Z,10.33
2018-01-26T03:03:39.278Z,10.3
2018-01-26T03:04:39.592Z,10.31
2018-01-26T03:05:39.049Z,10.3
2018-01-26T03:06:39.286Z,10.28
2018-01-26T03:07:39.285Z,10.23
2018-01-26T03:08:39.757Z,10.28
2018-01-26T03:09:39.330Z,10.25
2018-01-26T03:10:39.355Z,10.26
2018-01-26T03:11:39.670Z,10.25
2018-01-26T03:12:39.637Z,10.28
2018-01-26T03:13:39.113Z,10.26
2018-01-26T03:14:39.711Z,10.33
2018-01-26T03:15:39.449Z,10.25
2018-01-26T03:16:39.739Z,10.22
2018-01-26T03:17:39.150Z,10.28
2018-01-26T03:18:39.449Z,10.25
2018-01-26T03:19:39.461Z,10.28
2018-01-26T03:20:39.538Z,10.23
2018-01-26T03:21:39.553Z,10.25
2018-01-26T03:22:39.580Z,10.26
2018-01-26T03:23:39.247Z,10.22
2018-01-26T03:24:39.829Z,10.25
2018-01-26T03:25:39.838Z,10.23
2018-01-26T03:26:39.334Z,10.17
2018-01-26T03:27:39.627Z,10.23
2018-01-26T03:28:39.345Z,10.23
2018-01-26T03:29:39.930Z,10.23
2018-01-26T03:30:39.654Z,10.2
2018-01-26T03:31:39.967Z,10.22
2018-01-26T03:32:39.698Z,10.2
2018-01-26T03:33:39.699Z,10.26
2018-01-26T03:34:40.032Z,10.16
2018-01-26T03:35:39.813Z,10.23
2018-01-26T03:36:40.042Z,10.25
2018-01-26T03:37:39.740Z,10.25
2018-01-26T03:38:39.478Z,10.2
2018-01-26T03:39:39.822Z,10.2
2018-01-26T03:40:40.076Z,10.17
2018-01-26T03:41:39.513Z,10.22
2018-01-26T03:42:40.156Z,10.16
2018-01-26T03:43:40.162Z,10.16
2018-01-26T03:44:40.150Z,10.17
2018-01-26T03:45:39.885Z,10.2
2018-01-26T03:46:39.896Z,10.09
2018-01-26T03:47:39.901Z,10.1
2018-01-26T03:48:39.646Z,10.16
2018-01-26T03:49:39.947Z,10.13
2018-01-26T03:50:39.985Z,10.1
2018-01-26T03:51:39.701Z,10.16
2018-01-26T03:52:40.300Z,10.15
2018-01-26T03:53:40.281Z,10.15
2018-01-26T03:54:40.313Z,10.16
2018-01-26T03:55:40.341Z,10.05
2018-01-26T03:56:40.052Z,10.19
2018-01-26T03:57:40.046Z,10.1
2018-01-26T03:58:39.770Z,10.15
2018-01-26T03:59:39.764Z,10.15
2018-01-26T04:00:39.781Z,10.16
2018-01-26T04:01:39.814Z,10.09
2018-01-26T04:02:40.406Z,10.12
2018-01-26T04:03:40.100Z,10.1
2018-01-26T04:04:40.429Z,10.13
2018-01-26T04:05:40.330Z,10.15
2018-01-26T04:06:39.876Z,10.15
2018-01-26T04:07:40.444Z,10.1
2018-01-26T04:08:39.928Z,10.12
2018-01-26T04:09:39.923Z,10.17
2018-01-26T04:10:40.496Z,10.15
2018-01-26T04:11:40.273Z,10.12
2018-01-26T04:12:40.268Z,10.1
2018-01-26T04:13:40.299Z,10.12
2018-01-26T04:14:40.283Z,10.1
2018-01-26T04:15:40.639Z,10.09
2018-01-26T04:16:40.302Z,10.15
2018-01-26T04:17:40.348Z,10.1
2018-01-26T04:18:40.654Z,10.15
2018-01-26T04:19:40.653Z,10.12
2018-01-26T04:20:40.682Z,10.09
2018-01-26T04:21:40.686Z,10.1
2018-01-26T04:22:40.658Z,10.12
2018-01-26T04:23:40.714Z,10.16
2018-01-26T04:24:40.456Z,10.1
2018-01-26T04:25:40.244Z,10.12
2018-01-26T04:26:40.455Z,10.07
2018-01-26T04:27:40.732Z,10.05
2018-01-26T04:28:40.787Z,10.1
2018-01-26T04:29:40.545Z,10.05
2018-01-26T04:30:40.297Z,10.1
2018-01-26T04:31:40.262Z,10.13
2018-01-26T04:32:40.555Z,10.12
2018-01-26T04:33:40.601Z,10.1
2018-01-26T04:34:40.584Z,10.09
2018-01-26T04:35:40.728Z,10.13
2018-01-26T04:36:40.649Z,10.1
2018-01-26T04:37:40.613Z,10.05
2018-01-26T04:38:40.642Z,10.13
2018-01-26T04:39:40.980Z,10.12
2018-01-26T04:40:40.966Z,10.09
2018-01-26T04:41:40.387Z,10.1
2018-01-26T04:42:40.720Z,10.13
2018-01-26T04:43:40.967Z,10.07
2018-01-26T04:44:40.751Z,10.1
2018-01-26T04:45:40.455Z,10.13
2018-01-26T04:46:41.088Z,10.1
2018-01-26T04:47:40.774Z,10.16
2018-01-26T04:48:40.529Z,10.05
2018-01-26T04:49:41.084Z,10.17
2018-01-26T04:50:40.548Z,10.09
2018-01-26T04:51:40.574Z,10.1
2018-01-26T04:52:41.134Z,10.17
2018-01-26T04:53:41.177Z,10.04
2018-01-26T04:54:41.199Z,10.13
2018-01-26T04:55:41.186Z,10.07
2018-01-26T04:56:41.233Z,10.05
2018-01-26T04:57:40.918Z,10.09
2018-01-26T04:58:41.243Z,9.95
2018-01-26T04:59:40.969Z,10.16
2018-01-26T05:00:40.938Z,10.01
2018-01-26T05:01:40.976Z,10.09
2018-01-26T05:02:40.990Z,10.09
2018-01-26T05:03:41.010Z,10.07
2018-01-26T05:04:41.341Z,10.09
2018-01-26T05:05:41.068Z,10.07
2018-01-26T05:06:41.056Z,10.01
2018-01-26T05:07:41.040Z,10.1
2018-01-26T05:08:41.058Z,10.07
2018-01-26T05:09:41.123Z,10.05
2018-01-26T05:10:41.073Z,10.01
2018-01-26T05:11:41.140Z,9.98
2018-01-26T05:12:41.432Z,10.12
2018-01-26T05:13:41.427Z,9.95
2018-01-26T05:14:41.142Z,9.94
2018-01-26T05:15:41.189Z,10.04
2018-01-26T05:16:41.172Z,9.98
2018-01-26T05:17:41.235Z,10.02
2018-01-26T05:18:40.940Z,10.04
2018-01-26T05:19:40.926Z,10.01
2018-01-26T05:20:41.507Z,10.01
2018-01-26T05:21:41.523Z,10.09
2018-01-26T05:22:41.595Z,10.01
2018-01-26T05:23:41.024Z,9.99
2018-01-26T05:24:41.276Z,9.95
2018-01-26T05:25:41.643Z,10.04
2018-01-26T05:26:41.627Z,9.99
2018-01-26T05:27:41.328Z,9.97
2018-01-26T05:28:41.369Z,9.95
2018-01-26T05:29:41.110Z,9.99
2018-01-26T05:30:41.395Z,9.97
2018-01-26T05:31:41.374Z,9.98
2018-01-26T05:32:41.712Z,9.94
2018-01-26T05:33:41.764Z,9.95
2018-01-26T05:34:41.452Z,9.95
2018-01-26T05:35:41.713Z,9.95
2018-01-26T05:36:41.770Z,9.95
2018-01-26T05:37:41.740Z,9.97
2018-01-26T05:38:41.790Z,10.02
2018-01-26T05:39:41.501Z,9.94
2018-01-26T05:40:41.886Z,10.04
2018-01-26T05:41:41.871Z,9.95
2018-01-26T05:42:41.558Z,9.95
2018-01-26T05:43:41.573Z,9.99
2018-01-26T05:44:41.563Z,9.94
2018-01-26T05:45:41.602Z,9.97
2018-01-26T05:46:41.924Z,9.97
2018-01-26T05:47:41.359Z,9.95
2018-01-26T05:48:41.362Z,9.99
2018-01-26T05:49:41.407Z,10.04
2018-01-26T05:50:41.682Z,9.95
2018-01-26T05:51:41.699Z,9.95
2018-01-26T05:52:41.424Z,10.01
2018-01-26T05:53:41.745Z,9.97
2018-01-26T05:54:41.430Z,9.99
2018-01-26T05:55:41.464Z,9.97
2018-01-26T05:56:41.823Z,9.92
2018-01-26T05:57:42.192Z,9.99
2018-01-26T05:58:41.557Z,9.92
2018-01-26T05:59:42.174Z,9.92
2018-01-26T06:00:41.855Z,9.98
2018-01-26T06:01:42.123Z,9.97
2018-01-26T06:02:41.823Z,9.97
2018-01-26T06:03:42.115Z,9.98
2018-01-26T06:04:41.599Z,9.94
2018-01-26T06:05:41.899Z,9.99
2018-01-26T06:06:41.892Z,9.94
2018-01-26T06:07:42.249Z,9.87
2018-01-26T06:08:42.232Z,9.87
2018-01-26T06:09:41.652Z,9.98
2018-01-26T06:10:42.252Z,9.97
2018-01-26T06:11:42.265Z,9.98
2018-01-26T06:12:41.985Z,9.92
2018-01-26T06:13:41.734Z,9.86
2018-01-26T06:14:42.348Z,9.98
2018-01-26T06:15:41.728Z,9.95
2018-01-26T06:16:42.067Z,9.97
2018-01-26T06:17:42.060Z,9.97
2018-01-26T06:18:42.370Z,9.95
2018-01-26T06:19:42.416Z,9.91
2018-01-26T06:20:42.132Z,9.94
2018-01-26T06:21:42.117Z,9.95
2018-01-26T06:22:42.161Z,9.91
2018-01-26T06:23:42.482Z,9.87
2018-01-26T06:24:41.859Z,9.95
2018-01-26T06:25:42.512Z,9.91
2018-01-26T06:26:42.485Z,9.91
2018-01-26T06:27:42.213Z,9.98
2018-01-26T06:28:42.541Z,9.91
2018-01-26T06:29:41.963Z,9.95
2018-01-26T06:30:41.998Z,9.94
2018-01-26T06:31:42.238Z,9.92
2018-01-26T06:32:42.285Z,9.89
2018-01-26T06:33:42.308Z,9.91
2018-01-26T06:34:42.632Z,9.97
2018-01-26T06:35:42.316Z,9.91
2018-01-26T06:36:42.630Z,9.92
2018-01-26T06:37:42.667Z,9.97
2018-01-26T06:38:42.401Z,9.89
2018-01-26T06:39:42.353Z,9.92
2018-01-26T06:40:42.383Z,9.97
2018-01-26T06:41:43.157Z,9.89
2018-01-26T06:42:42.150Z,9.89
2018-01-26T06:43:42.751Z,9.91
2018-01-26T06:44:42.784Z,9.97
2018-01-26T06:45:42.481Z,9.87
2018-01-26T06:46:42.500Z,9.95
2018-01-26T06:47:42.521Z,9.87
2018-01-26T06:48:42.535Z,9.97
2018-01-26T06:49:42.538Z,9.94
2018-01-26T06:50:42.573Z,9.97
2018-01-26T06:51:42.271Z,9.95
2018-01-26T06:52:42.574Z,9.92
2018-01-26T06:53:42.615Z,9.92
2018-01-26T06:54:42.890Z,9.91
2018-01-26T06:55:42.582Z,9.91
2018-01-26T06:56:42.658Z,9.89
2018-01-26T06:57:42.624Z,9.95
2018-01-26T06:58:42.965Z,9.83
2018-01-26T06:59:42.383Z,9.89
2018-01-26T07:00:43.016Z,9.91
2018-01-26T07:01:43.020Z,9.92
2018-01-26T07:02:42.965Z,9.94
2018-01-26T07:03:43.051Z,9.95
2018-01-26T07:04:43.229Z,9.92
2018-01-26T07:05:42.466Z,9.97
2018-01-26T07:06:42.769Z,9.97
2018-01-26T07:07:43.065Z,9.91
2018-01-26T07:08:43.095Z,9.94
2018-01-26T07:09:43.102Z,9.91
2018-01-26T07:10:42.526Z,9.95
2018-01-26T07:11:42.564Z,9.92
2018-01-26T07:12:43.195Z,9.92
2018-01-26T07:13:42.871Z,9.97
2018-01-26T07:14:42.614Z,9.91
2018-01-26T07:15:42.898Z,9.91
2018-01-26T07:16:43.163Z,9.87
2018-01-26T07:17:43.242Z,9.92
2018-01-26T07:18:42.673Z,9.94
2018-01-26T07:19:43.215Z,9.92
2018-01-26T07:20:43.262Z,9.89
2018-01-26T07:21:43.264Z,9.89
2018-01-26T07:22:42.977Z,9.92
2018-01-26T07:23:43.297Z,9.91
2018-01-26T07:24:42.748Z,9.91
2018-01-26T07:25:43.052Z,9.89
2018-01-26T07:26:43.034Z,9.92
2018-01-26T07:27:43.102Z,9.94
2018-01-26T07:28:43.087Z,9.92
2018-01-26T07:29:43.131Z,9.97
2018-01-26T07:30:43.131Z,9.95
2018-01-26T07:31:43.117Z,9.92
2018-01-26T07:32:43.143Z,9.94
2018-01-26T07:33:43.487Z,9.92
2018-01-26T07:34:43.171Z,9.95
2018-01-26T07:35:42.925Z,9.92
2018-01-26T07:36:43.249Z,9.95
2018-01-26T07:37:43.193Z,9.92
2018-01-26T07:38:43.509Z,9.89
2018-01-26T07:39:42.939Z,9.89
2018-01-26T07:40:42.946Z,9.89
2018-01-26T07:41:43.532Z,9.89
2018-01-26T07:42:43.284Z,9.87
2018-01-26T07:43:43.320Z,9.98
2018-01-26T07:44:43.021Z,9.91
2018-01-26T07:45:43.058Z,9.95
2018-01-26T07:46:43.049Z,9.91
2018-01-26T07:47:43.673Z,9.95
2018-01-26T07:48:43.402Z,9.91
2018-01-26T07:49:43.417Z,9.94
2018-01-26T07:50:43.413Z,9.92
2018-01-26T07:51:43.679Z,9.89
2018-01-26T07:52:43.456Z,9.95
2018-01-26T07:53:43.434Z,9.94
2018-01-26T07:54:43.206Z,9.92
2018-01-26T07:55:43.460Z,9.91
2018-01-26T07:56:43.802Z,9.97
2018-01-26T07:57:43.500Z,9.91
2018-01-26T07:58:43.506Z,9.97
2018-01-26T07:59:43.514Z,10.05
2018-01-26T08:00:43.542Z,9.95
2018-01-26T08:01:43.554Z,9.97
2018-01-26T08:02:43.571Z,9.97
2018-01-26T08:03:43.594Z,9.95
2018-01-26T08:04:43.574Z,9.98
2018-01-26T08:05:43.590Z,9.97
2018-01-26T08:06:43.611Z,9.94
2018-01-26T08:07:43.905Z,9.89
2018-01-26T08:08:43.368Z,9.89
2018-01-26T08:09:43.418Z,9.89
2018-01-26T08:10:43.687Z,10.01
2018-01-26T08:11:43.692Z,9.87
2018-01-26T08:12:43.794Z,9.95
2018-01-26T08:13:43.742Z,9.98
2018-01-26T08:14:43.733Z,9.98
2018-01-26T08:15:44.047Z,9.92
2018-01-26T08:16:43.759Z,9.94
2018-01-26T08:17:43.865Z,9.97
2018-01-26T08:18:44.066Z,9.95
2018-01-26T08:19:43.779Z,9.87
2018-01-26T08:20:44.139Z,9.97
2018-01-26T08:21:43.840Z,9.99
2018-01-26T08:22:43.853Z,10.01
2018-01-26T08:23:43.591Z,9.92
2018-01-26T08:24:43.904Z,10.04
2018-01-26T08:25:44.155Z,9.99
2018-01-26T08:26:43.899Z,10.01
2018-01-26T08:27:43.919Z,9.98
2018-01-26T08:28:44.236Z,9.99
2018-01-26T08:29:43.923Z,9.94
2018-01-26T08:30:44.007Z,10.01
2018-01-26T08:31:43.693Z,9.97
2018-01-26T08:32:44.329Z,9.99
2018-01-26T08:33:44.000Z,9.97
2018-01-26T08:34:44.036Z,10.01
2018-01-26T08:35:44.329Z,9.98
2018-01-26T08:36:43.773Z,10.02
2018-01-26T08:37:43.827Z,9.97
2018-01-26T08:38:44.066Z,9.92
2018-01-26T08:39:43.807Z,10.01
2018-01-26T08:40:44.154Z,10.01
2018-01-26T08:41:44.373Z,9.94
2018-01-26T08:42:44.400Z,9.97
2018-01-26T08:43:44.137Z,9.97
2018-01-26T08:44:44.460Z,9.97
2018-01-26T08:45:44.152Z,9.99
2018-01-26T08:46:43.907Z,10.01
2018-01-26T08:47:44.062Z,9.99
2018-01-26T08:48:44.248Z,9.97
2018-01-26T08:49:44.229Z,9.99
2018-01-26T08:50:44.522Z,9.98
2018-01-26T08:51:44.293Z,10.07
2018-01-26T08:52:44.054Z,9.95
2018-01-26T08:53:44.589Z,9.97
2018-01-26T08:54:44.558Z,10.01
2018-01-26T08:55:44.065Z,9.98
2018-01-26T08:56:44.060Z,9.95
2018-01-26T08:57:44.374Z,9.95
2018-01-26T08:58:44.339Z,9.94
2018-01-26T08:59:44.382Z,10.04
2018-01-26T09:00:44.131Z,9.91
2018-01-26T09:01:44.725Z,9.97
2018-01-26T09:02:44.707Z,9.99
2018-01-26T09:03:44.162Z,9.99
2018-01-26T09:04:44.481Z,10.01
2018-01-26T09:05:44.451Z,10.01
2018-01-26T09:06:44.505Z,10.02
2018-01-26T09:07:44.519Z,9.99
2018-01-26T09:08:44.231Z,9.95
2018-01-26T09:09:44.503Z,10.1
2018-01-26T09:10:44.545Z,9.99
2018-01-26T09:11:44.562Z,10.09
2018-01-26T09:12:44.306Z,10.09
2018-01-26T09:13:44.583Z,10.05
2018-01-26T09:14:44.882Z,10.05
2018-01-26T09:15:44.902Z,10.09
2018-01-26T09:16:44.596Z,10.09
2018-01-26T09:17:44.446Z,10.12
2018-01-26T09:18:44.920Z,10.16
2018-01-26T09:19:44.966Z,10.16
2018-01-26T09:20:44.948Z,10.01
2018-01-26T09:21:44.699Z,10.1
2018-01-26T09:22:45.023Z,10.16
2018-01-26T09:23:44.696Z,10.17
2018-01-26T09:24:44.473Z,10.12
2018-01-26T09:25:44.800Z,10.13
2018-01-26T09:26:44.750Z,10.09
2018-01-26T09:27:45.064Z,10.13
2018-01-26T09:28:45.087Z,10.07
2018-01-26T09:29:45.102Z,10.07
2018-01-26T09:30:44.547Z,10.09
2018-01-26T09:31:45.134Z,10.1
2018-01-26T09:32:44.597Z,10.1
2018-01-26T09:33:44.901Z,10.16
2018-01-26T09:34:45.175Z,10.22
2018-01-26T09:35:44.618Z,10.17
2018-01-26T09:36:44.894Z,10.13
2018-01-26T09:37:44.637Z,10.13
2018-01-26T09:38:44.947Z,10.15
2018-01-26T09:39:44.954Z,10.1
2018-01-26T09:40:44.707Z,10.09
2018-01-26T09:41:44.695Z,10.15
2018-01-26T09:42:44.731Z,10.16
2018-01-26T09:43:45.024Z,10.13
2018-01-26T09:44:45.336Z,10.15
2018-01-26T09:45:45.332Z,10.17
2018-01-26T09:46:45.024Z,10.23
2018-01-26T09:47:44.770Z,10.13
2018-01-26T09:48:45.086Z,10.09
2018-01-26T09:49:45.124Z,10.13
2018-01-26T09:50:45.172Z,10.09
2018-01-26T09:51:45.415Z,10.17
2018-01-26T09:52:44.873Z,10.09
2018-01-26T09:53:45.209Z,10.09
2018-01-26T09:54:44.859Z,10.17
2018-01-26T09:55:45.186Z,10.2
2018-01-26T09:56:45.203Z,10.17
2018-01-26T09:57:45.498Z,10.19
2018-01-26T09:58:45.284Z,10.2
2018-01-26T09:59:44.932Z,10.26
2018-01-26T10:00:45.577Z,10.2
2018-01-26T10:01:45.534Z,10.28
2018-01-26T10:02:45.535Z,10.26
2018-01-26T10:03:45.338Z,10.2
2018-01-26T10:04:45.357Z,10.3
2018-01-26T10:05:45.619Z,10.23
2018-01-26T10:06:45.637Z,10.26
2018-01-26T10:07:45.359Z,10.33
2018-01-26T10:08:45.103Z,10.26
2018-01-26T10:09:45.089Z,10.26
2018-01-26T10:10:45.114Z,10.23
2018-01-26T10:11:45.137Z,10.31
2018-01-26T10:12:45.709Z,10.37
2018-01-26T10:13:45.165Z,10.3
2018-01-26T10:14:45.175Z,10.33
2018-01-26T10:15:45.760Z,10.28
2018-01-26T10:16:45.520Z,10.37
2018-01-26T10:17:45.220Z,10.38
2018-01-26T10:18:45.504Z,10.26
2018-01-26T10:19:45.845Z,10.34
2018-01-26T10:20:45.583Z,10.38
2018-01-26T10:21:45.812Z,10.37
2018-01-26T10:22:45.611Z,10.33
2018-01-26T10:23:45.597Z,10.31
2018-01-26T10:24:45.329Z,10.3
2018-01-26T10:25:45.609Z,10.35
2018-01-26T10:26:45.344Z,10.38
2018-01-26T10:27:45.616Z,10.37
2018-01-26T10:28:45.959Z,10.37
2018-01-26T10:29:45.698Z,10.4
2018-01-26T10:30:46.015Z,10.4
2018-01-26T10:31:46.002Z,10.37
2018-01-26T10:32:45.714Z,10.41
2018-01-26T10:33:45.449Z,10.4
2018-01-26T10:34:46.067Z,10.42
2018-01-26T10:35:45.507Z,10.4
2018-01-26T10:36:46.072Z,10.42
2018-01-26T10:37:45.852Z,10.38
2018-01-26T10:38:46.102Z,10.42
2018-01-26T10:39:45.856Z,10.41
2018-01-26T10:40:45.570Z,10.42
2018-01-26T10:41:45.852Z,10.46
2018-01-26T10:42:45.868Z,10.44
2018-01-26T10:43:45.863Z,10.44
2018-01-26T10:44:46.179Z,10.41
2018-01-26T10:45:45.936Z,10.42
2018-01-26T10:46:45.928Z,10.42
2018-01-26T10:47:46.012Z,10.38
2018-01-26T10:48:45.924Z,10.42
2018-01-26T10:49:45.712Z,10.41
2018-01-26T10:50:45.990Z,10.44
2018-01-26T10:51:46.326Z,10.42
2018-01-26T10:52:45.733Z,10.4
2018-01-26T10:53:45.759Z,10.4
2018-01-26T10:54:46.054Z,10.35
2018-01-26T10:55:46.027Z,10.41
2018-01-26T10:56:46.097Z,10.53
2018-01-26T10:57:46.056Z,10.48
2018-01-26T10:58:46.065Z,10.49
2018-01-26T10:59:46.470Z,10.46
2018-01-26T11:00:46.164Z,10.56
2018-01-26T11:01:46.443Z,10.54
2018-01-26T11:02:46.170Z,10.57
2018-01-26T11:03:46.195Z,10.63
2018-01-26T11:04:46.188Z,10.57
2018-01-26T11:05:46.492Z,10.63
2018-01-26T11:06:45.929Z,10.67
2018-01-26T11:07:46.552Z,10.68
2018-01-26T11:08:46.245Z,10.61
2018-01-26T11:09:46.229Z,10.61
2018-01-26T11:10:46.278Z,10.61
2018-01-26T11:11:46.617Z,10.61
2018-01-26T11:12:46.329Z,10.64
2018-01-26T11:13:46.025Z,10.67
2018-01-26T11:14:46.055Z,10.61
2018-01-26T11:15:46.350Z,10.64
2018-01-26T11:16:46.373Z,10.68
2018-01-26T11:17:46.637Z,10.61
2018-01-26T11:18:46.373Z,10.72
2018-01-26T11:19:46.582Z,10.67
2018-01-26T11:20:46.455Z,10.67
2018-01-26T11:21:46.747Z,10.64
2018-01-26T11:22:46.702Z,10.67
2018-01-26T11:23:46.793Z,10.78
2018-01-26T11:24:46.786Z,10.71
2018-01-26T11:25:46.792Z,10.67
2018-01-26T11:26:46.255Z,10.71
2018-01-26T11:27:46.495Z,10.74
2018-01-26T11:28:46.520Z,10.71
2018-01-26T11:29:46.705Z,10.78
2018-01-26T11:30:46.556Z,10.74
2018-01-26T11:31:46.908Z,10.78
2018-01-26T11:32:46.341Z,10.78
2018-01-26T11:33:46.874Z,10.75
2018-01-26T11:34:46.634Z,10.75
2018-01-26T11:35:46.652Z,10.78
2018-01-26T11:36:46.909Z,10.76
2018-01-26T11:37:46.710Z,10.76
2018-01-26T11:38:46.380Z,10.75
2018-01-26T11:39:46.955Z,10.75
2018-01-26T11:40:46.762Z,10.79
2018-01-26T11:41:47.072Z,10.75
2018-01-26T11:42:47.044Z,10.78
2018-01-26T11:43:47.053Z,10.78
2018-01-26T11:44:46.791Z,10.79
2018-01-26T11:45:46.508Z,10.78
2018-01-26T11:46:47.086Z,10.74
2018-01-26T11:47:47.113Z,10.78
2018-01-26T11:48:46.859Z,10.81
2018-01-26T11:49:46.751Z,10.76
2018-01-26T11:50:47.148Z,10.76
2018-01-26T11:51:47.131Z,10.81
2018-01-26T11:52:46.886Z,10.72
2018-01-26T11:53:47.193Z,10.72
2018-01-26T11:54:46.949Z,10.79
2018-01-26T11:55:46.916Z,10.76
2018-01-26T11:56:46.944Z,10.82
2018-01-26T11:57:46.995Z,10.81
2018-01-26T11:58:46.967Z,10.75
2018-01-26T11:59:46.996Z,10.72
2018-01-26T12:00:47.267Z,10.79
2018-01-26T12:01:47.000Z,10.76
2018-01-26T12:02:47.029Z,10.79
2018-01-26T12:03:47.036Z,10.87
2018-01-26T12:04:46.868Z,10.78
2018-01-26T12:05:47.092Z,10.84
2018-01-26T12:06:47.386Z,10.79
2018-01-26T12:07:47.121Z,10.84
2018-01-26T12:08:46.868Z,10.81
2018-01-26T12:09:47.162Z,10.81
2018-01-26T12:10:47.198Z,10.72
2018-01-26T12:11:46.921Z,10.78
2018-01-26T12:12:47.179Z,10.79
2018-01-26T12:13:47.463Z,10.78
2018-01-26T12:14:47.303Z,10.79
2018-01-26T12:15:47.248Z,10.86
2018-01-26T12:16:46.987Z,10.79
2018-01-26T12:17:47.253Z,10.81
2018-01-26T12:18:47.024Z,10.86
2018-01-26T12:19:47.591Z,10.81
2018-01-26T12:20:47.295Z,10.86
2018-01-26T12:21:47.303Z,10.72
2018-01-26T12:22:47.626Z,10.72
2018-01-26T12:23:47.385Z,10.74
2018-01-26T12:24:47.381Z,10.81
2018-01-26T12:25:47.424Z,10.75
2018-01-26T12:26:47.723Z,10.79
2018-01-26T12:27:47.154Z,10.81
2018-01-26T12:28:47.434Z,10.79
2018-01-26T12:29:47.164Z,10.76
2018-01-26T12:30:47.455Z,10.84
2018-01-26T12:31:47.489Z,10.76
2018-01-26T12:32:47.499Z,10.78
2018-01-26T12:33:47.875Z,10.79
2018-01-26T12:34:47.824Z,10.81
2018-01-26T12:35:47.510Z,10.76
2018-01-26T12:36:47.292Z,10.78
2018-01-26T12:37:47.260Z,10.78
2018-01-26T12:38:47.598Z,10.78
2018-01-26T12:39:47.633Z,10.76
2018-01-26T12:40:48.008Z,10.76
2018-01-26T12:41:47.652Z,10.78
2018-01-26T12:42:47.909Z,10.74
2018-01-26T12:43:47.951Z,10.81
2018-01-26T12:44:47.969Z,10.79
2018-01-26T12:45:47.690Z,10.75
2018-01-26T12:46:47.731Z,10.75
2018-01-26T12:47:47.734Z,10.79
2018-01-26T12:48:47.447Z,10.76
2018-01-26T12:49:47.715Z,10.78
2018-01-26T12:50:48.088Z,10.81
2018-01-26T12:51:47.771Z,10.75
2018-01-26T12:52:47.537Z,10.75
2018-01-26T12:53:48.056Z,10.78
2018-01-26T12:54:48.101Z,10.76
2018-01-26T12:55:48.100Z,10.74
2018-01-26T12:56:47.552Z,10.75
2018-01-26T12:57:47.839Z,10.74
2018-01-26T12:58:48.197Z,10.75
2018-01-26T12:59:48.183Z,10.72
2018-01-26T13:00:47.943Z,10.79
2018-01-26T13:01:48.197Z,10.78